Time,TemperatureF,DewpointF,PressureIn,WindDirection,WindDirectionDegrees,WindSpeedMPH,WindSpeedGustMPH,Humidity,HourlyPrecipIn,Conditions,Clouds,dailyrainin,SoftwareType,DateUTC
2013-07-22 00:09:00,67.4,67.0,29.99,NE,42,0.0,0.0,97,0.00,,,0.80,weatherlink.com 1.10,2013-07-22 04:09:00,
2013-07-22 00:24:00,67.5,67.0,29.99,NE,43,0.0,0.0,97,0.00,,,0.00,weatherlink.com 1.10,2013-07-22 04:24:00,
2013-07-22 00:39:00,67.5,67.0,29.99,NE,42,0.0,0.0,97,0.00,,,0.00,weatherlink.com 1.10,2013-07-22 04:39:00,
2013-07-22 00:54:00,67.5,67.0,29.98,NE,42,0.0,0.0,97,0.00,,,0.00,weatherlink.com 1.10,2013-07-22 04:54:00,
2013-07-22 01:09:00,67.4,67.0,29.98,NE,43,0.0,0.0,97,0.00,,,0.00,weatherlink.com 1.10,2013-07-22 05:09:00,
2013-07-22 01:24:00,67.1,66.0,29.97,NE,42,0.0,0.0,97,0.00,,,0.00,weatherlink.com 1.10,2013-07-22 05:24:00,
2013-07-22 01:39:00,67.1,66.0,29.97,NE,42,0.0,0.0,97,0.00,,,0.00,weatherlink.com 1.10,2013-07-22 05:39:00,
2013-07-22 01:54:00,67.1,66.0,29.96,NE,42,0.0,0.0,97,0.00,,,0.00,weatherlink.com 1.10,2013-07-22 05:54:00,
2013-07-22 02:09:00,67.2,66.0,29.95,NE,42,0.0,0.0,97,0.00,,,0.00,weatherlink.com 1.10,2013-07-22 06:09:00,
2013-07-22 02:24:00,67.1,66.0,29.94,NE,42,0.0,0.0,97,0.00,,,0.00,weatherlink.com 1.10,2013-07-22 06:24:00,
2013-07-22 02:39:00,67.1,66.0,29.93,NE,43,0.0,0.0,97,0.00,,,0.00,weatherlink.com 1.10,2013-07-22 06:39:00,
2013-07-22 02:54:00,66.9,66.0,29.93,NE,42,0.0,0.0,97,0.00,,,0.00,weatherlink.com 1.10,2013-07-22 06:54:00,
2013-07-22 03:09:00,66.8,66.0,29.93,NE,42,0.0,0.0,97,0.00,,,0.00,weatherlink.com 1.10,2013-07-22 07:09:00,
2013-07-22 03:24:00,66.9,66.0,29.92,NE,42,0.0,0.0,98,0.00,,,0.00,weatherlink.com 1.10,2013-07-22 07:24:00,
2013-07-22 03:39:00,66.8,66.0,29.92,NE,42,0.0,0.0,98,0.00,,,0.00,weatherlink.com 1.10,2013-07-22 07:39:00,
2013-07-22 03:54:00,66.7,66.0,29.92,NE,42,0.0,0.0,97,0.00,,,0.00,weatherlink.com 1.10,2013-07-22 07:54:00,
2013-07-22 04:09:00,66.6,66.0,29.91,NE,43,0.0,0.0,98,0.00,,,0.00,weatherlink.com 1.10,2013-07-22 08:09:00,
2013-07-22 04:24:00,66.5,66.0,29.91,NE,42,0.0,0.0,98,0.00,,,0.00,weatherlink.com 1.10,2013-07-22 08:24:00,
2013-07-22 04:39:00,66.6,66.0,29.91,NE,43,0.0,0.0,98,0.00,,,0.00,weatherlink.com 1.10,2013-07-22 08:39:00,
2013-07-22 04:54:00,66.4,66.0,29.91,NE,43,0.0,0.0,98,0.00,,,0.00,weatherlink.com 1.10,2013-07-22 08:54:00,
2013-07-22 05:09:00,66.5,66.0,29.92,NE,42,0.0,0.0,98,0.00,,,0.00,weatherlink.com 1.10,2013-07-22 09:09:00,
2013-07-22 05:24:00,66.4,66.0,29.92,NE,42,0.0,0.0,98,0.00,,,0.00,weatherlink.com 1.10,2013-07-22 09:24:00,
2013-07-22 05:39:00,66.2,66.0,29.93,NE,42,0.0,0.0,98,0.00,,,0.00,weatherlink.com 1.10,2013-07-22 09:39:00,
2013-07-22 05:54:00,66.0,66.0,29.93,NE,42,0.0,0.0,98,0.00,,,0.00,weatherlink.com 1.10,2013-07-22 09:54:00,
2013-07-22 06:09:00,65.9,65.0,29.93,NE,42,0.0,0.0,98,0.00,,,0.00,weatherlink.com 1.10,2013-07-22 10:09:00,
2013-07-22 06:24:00,65.9,65.0,29.93,NE,42,0.0,0.0,98,0.00,,,0.00,weatherlink.com 1.10,2013-07-22 10:24:00,
2013-07-22 06:40:00,65.9,65.0,29.94,NE,42,0.0,0.0,98,0.00,,,0.00,weatherlink.com 1.10,2013-07-22 10:40:00,
2013-07-22 06:54:00,65.9,65.0,29.93,NE,43,0.0,0.0,98,0.00,,,0.00,weatherlink.com 1.10,2013-07-22 10:54:00,
2013-07-22 07:09:00,66.2,66.0,29.94,NE,42,0.0,0.0,98,0.00,,,0.00,weatherlink.com 1.10,2013-07-22 11:09:00,
2013-07-22 07:24:00,66.2,66.0,29.94,NE,43,0.0,0.0,98,0.00,,,0.00,weatherlink.com 1.10,2013-07-22 11:24:00,
2013-07-22 07:39:00,66.4,66.0,29.95,NE,43,0.0,0.0,98,0.00,,,0.00,weatherlink.com 1.10,2013-07-22 11:39:00,
2013-07-22 07:54:00,66.5,66.0,29.95,NE,42,0.0,0.0,98,0.00,,,0.00,weatherlink.com 1.10,2013-07-22 11:54:00,
2013-07-22 08:09:00,66.4,66.0,29.95,NE,43,0.0,0.0,98,0.00,,,0.00,weatherlink.com 1.10,2013-07-22 12:09:00,
2013-07-22 08:24:00,66.2,65.0,29.96,NE,42,0.0,0.0,97,0.00,,,0.00,weatherlink.com 1.10,2013-07-22 12:24:00,
2013-07-22 08:39:00,66.5,66.0,29.96,NE,42,0.0,0.0,98,0.00,,,0.00,weatherlink.com 1.10,2013-07-22 12:39:00,
2013-07-22 08:54:00,67.0,67.0,29.97,NE,42,0.0,0.0,98,0.00,,,0.00,weatherlink.com 1.10,2013-07-22 12:54:00,
2013-07-22 09:09:00,67.7,67.0,29.97,NE,42,0.0,0.0,97,0.00,,,0.00,weatherlink.com 1.10,2013-07-22 13:09:00,
2013-07-22 09:24:00,67.9,67.0,29.97,ENE,71,0.0,0.0,97,0.00,,,0.00,weatherlink.com 1.10,2013-07-22 13:24:00,
2013-07-22 09:39:00,68.1,67.0,29.97,ENE,70,0.0,0.0,96,0.00,,,0.00,weatherlink.com 1.10,2013-07-22 13:39:00,
2013-07-22 09:54:00,69.0,68.0,29.97,ENE,71,0.0,0.0,96,0.00,,,0.00,weatherlink.com 1.10,2013-07-22 13:54:00,
2013-07-22 10:10:00,70.0,69.0,29.96,ENE,71,0.0,0.0,95,0.00,,,0.00,weatherlink.com 1.10,2013-07-22 14:10:00,
2013-07-22 10:25:00,70.6,69.0,29.96,ENE,71,0.0,0.0,93,0.00,,,0.00,weatherlink.com 1.10,2013-07-22 14:25:00,
2013-07-22 10:40:00,71.1,69.0,29.96,East,89,0.0,0.0,93,0.00,,,0.00,weatherlink.com 1.10,2013-07-22 14:40:00,
2013-07-22 10:55:00,72.5,70.0,29.96,East,91,2.0,2.0,92,0.00,,,0.00,weatherlink.com 1.10,2013-07-22 14:55:00,
2013-07-22 11:10:00,72.6,70.0,29.96,NE,50,0.0,0.0,90,0.00,,,0.00,weatherlink.com 1.10,2013-07-22 15:10:00,
2013-07-22 11:25:00,73.2,70.0,29.95,North,354,0.0,0.0,89,0.00,,,0.00,weatherlink.com 1.10,2013-07-22 15:25:00,
2013-07-22 11:40:00,74.1,70.0,29.95,North,354,0.0,0.0,88,0.00,,,0.00,weatherlink.com 1.10,2013-07-22 15:40:00,
2013-07-22 11:55:00,74.5,71.0,29.95,North,354,0.0,0.0,87,0.00,,,0.00,weatherlink.com 1.10,2013-07-22 15:55:00,
2013-07-22 12:10:00,76.7,71.0,29.95,SE,132,1.0,1.0,81,0.00,,,0.00,weatherlink.com 1.10,2013-07-22 16:10:00,
2013-07-22 12:25:00,78.1,71.0,29.93,North,1,0.0,1.0,79,0.00,,,0.00,weatherlink.com 1.10,2013-07-22 16:25:00,
2013-07-22 12:40:00,80.3,74.0,29.93,East,82,0.0,2.0,80,0.00,,,0.00,weatherlink.com 1.10,2013-07-22 16:40:00,
2013-07-22 12:55:00,81.4,73.0,29.93,East,97,0.0,1.0,75,0.00,,,0.00,weatherlink.com 1.10,2013-07-22 16:55:00,
2013-07-22 13:11:00,81.0,69.0,29.92,North,357,1.0,5.0,66,0.00,,,0.00,weatherlink.com 1.10,2013-07-22 17:11:00,
2013-07-22 13:25:00,81.7,70.0,29.91,ESE,105,0.0,4.0,67,0.00,,,0.00,weatherlink.com 1.10,2013-07-22 17:25:00,
2013-07-22 13:40:00,82.6,72.0,29.90,WNW,288,0.0,4.0,71,0.00,,,0.00,weatherlink.com 1.10,2013-07-22 17:40:00,
2013-07-22 13:55:00,82.6,71.0,29.90,ESE,107,1.0,2.0,69,0.00,,,0.00,weatherlink.com 1.10,2013-07-22 17:55:00,
2013-07-22 14:10:00,82.0,71.0,29.88,SSW,207,1.0,3.0,69,0.00,,,0.00,weatherlink.com 1.10,2013-07-22 18:10:00,
2013-07-22 14:25:00,82.0,73.0,29.88,SSW,210,1.0,2.0,74,0.00,,,0.00,weatherlink.com 1.10,2013-07-22 18:25:00,
2013-07-22 14:40:00,82.1,68.0,29.87,ENE,74,0.0,4.0,63,0.00,,,0.00,weatherlink.com 1.10,2013-07-22 18:40:00,
2013-07-22 15:10:00,83.1,71.0,29.87,South,169,1.0,1.0,66,0.00,,,0.00,weatherlink.com 1.10,2013-07-22 19:10:00,
2013-07-22 15:25:00,82.4,73.0,29.86,ENE,58,1.0,5.0,72,0.00,,,0.00,weatherlink.com 1.10,2013-07-22 19:25:00,
2013-07-22 15:40:00,82.1,70.0,29.85,East,84,0.0,2.0,67,0.00,,,0.00,weatherlink.com 1.10,2013-07-22 19:40:00,
2013-07-22 15:55:00,80.1,70.0,29.85,SE,131,0.0,3.0,72,0.00,,,0.00,weatherlink.com 1.10,2013-07-22 19:55:00,
2013-07-22 16:11:00,78.9,70.0,29.85,SSW,203,0.0,1.0,74,0.00,,,0.00,weatherlink.com 1.10,2013-07-22 20:11:00,
2013-07-22 16:26:00,78.5,70.0,29.84,SE,129,1.0,2.0,74,0.00,,,0.00,weatherlink.com 1.10,2013-07-22 20:26:00,
2013-07-22 16:41:00,77.8,70.0,29.84,WNW,283,1.0,4.0,76,0.00,,,0.00,weatherlink.com 1.10,2013-07-22 20:41:00,
2013-07-22 16:43:00,77.7,69.9,29.85,East,96,1.0,1.0,77,0.00,,,0.00,Wunderground v.1.15,2013-07-22 20:43:00,
2013-07-22 16:45:00,77.6,69.0,29.84,East,82,1.0,2.0,75,0.00,,,0.00,Wunderground v.1.15,2013-07-22 20:45:00,
2013-07-22 16:47:00,77.4,70.0,29.84,ESE,105,1.0,2.0,78,0.00,,,0.00,Wunderground v.1.15,2013-07-22 20:47:00,
2013-07-22 16:53:00,76.9,69.5,29.84,South,174,1.0,1.0,78,0.00,,,0.00,Wunderground v.1.15,2013-07-22 20:53:00,
2013-07-22 16:59:00,76.7,69.3,29.84,SW,219,1.0,2.0,78,0.00,,,0.00,Wunderground v.1.15,2013-07-22 20:59:00,
2013-07-22 17:05:00,76.8,69.0,29.83,SSW,205,1.0,2.0,77,0.00,,,0.00,Wunderground v.1.15,2013-07-22 21:05:00,
2013-07-22 17:11:00,77.0,70.0,29.83,SSE,150,1.0,1.0,79,0.00,,,0.00,Wunderground v.1.15,2013-07-22 21:11:00,
2013-07-22 17:16:00,77.0,68.9,29.83,SSW,200,1.0,1.0,76,0.00,,,0.00,Wunderground v.1.15,2013-07-22 21:16:00,
2013-07-22 17:22:00,77.0,68.1,29.82,South,176,1.0,1.0,74,0.00,,,0.00,Wunderground v.1.15,2013-07-22 21:22:00,
2013-07-22 17:28:00,77.2,67.9,29.82,SSE,156,0.0,1.0,73,0.00,,,0.00,Wunderground v.1.15,2013-07-22 21:28:00,
2013-07-22 17:33:00,77.2,68.7,29.82,SSW,200,1.0,1.0,75,0.00,,,0.00,Wunderground v.1.15,2013-07-22 21:33:00,
2013-07-22 17:38:00,77.3,68.0,29.82,NE,54,1.0,1.0,73,0.00,,,0.00,Wunderground v.1.15,2013-07-22 21:38:00,
2013-07-22 17:44:00,77.5,69.3,29.81,SSE,165,0.0,2.0,76,0.00,,,0.00,Wunderground v.1.15,2013-07-22 21:44:00,
2013-07-22 17:49:00,77.4,69.6,29.81,SE,146,0.0,2.0,77,0.00,,,0.00,Wunderground v.1.15,2013-07-22 21:49:00,
2013-07-22 17:55:00,77.5,70.1,29.81,South,188,0.0,2.0,78,0.00,,,0.00,Wunderground v.1.15,2013-07-22 21:55:00,
2013-07-22 18:00:00,77.9,70.5,29.81,South,183,1.0,1.0,78,0.00,,,0.00,Wunderground v.1.15,2013-07-22 22:00:00,
2013-07-22 18:06:00,78.0,71.0,29.81,South,185,1.0,1.0,79,0.00,,,0.00,Wunderground v.1.15,2013-07-22 22:06:00,
2013-07-22 18:11:00,78.1,69.9,29.81,WSW,249,1.0,1.0,76,0.00,,,0.00,Wunderground v.1.15,2013-07-22 22:11:00,
2013-07-22 18:16:00,78.5,70.3,29.81,ENE,71,1.0,1.0,76,0.00,,,0.00,Wunderground v.1.15,2013-07-22 22:16:00,
2013-07-22 18:21:00,78.6,70.8,29.82,WNW,287,0.0,0.0,77,0.00,,,0.00,Wunderground v.1.15,2013-07-22 22:21:00,
2013-07-22 18:27:00,78.6,70.8,29.82,WNW,287,0.0,0.0,77,0.00,,,0.00,Wunderground v.1.15,2013-07-22 22:27:00,
2013-07-22 18:32:00,78.3,70.5,29.81,WNW,297,0.0,0.0,77,0.00,,,0.00,Wunderground v.1.15,2013-07-22 22:32:00,
2013-07-22 18:38:00,78.2,68.4,29.81,SE,131,0.0,1.0,72,0.00,,,0.00,Wunderground v.1.15,2013-07-22 22:38:00,
2013-07-22 18:43:00,78.5,69.9,29.81,SE,131,1.0,1.0,75,0.00,,,0.00,Wunderground v.1.15,2013-07-22 22:43:00,
2013-07-22 18:48:00,78.4,69.8,29.80,SSE,155,1.0,1.0,75,0.00,,,0.00,Wunderground v.1.15,2013-07-22 22:48:00,
2013-07-22 18:54:00,77.9,69.3,29.80,SSE,155,0.0,1.0,75,0.00,,,0.00,Wunderground v.1.15,2013-07-22 22:54:00,
2013-07-22 19:01:00,77.4,68.9,29.80,SSE,155,1.0,1.0,75,0.00,,,0.00,Wunderground v.1.15,2013-07-22 23:01:00,
2013-07-22 19:06:00,77.2,67.9,29.80,SSE,155,1.0,1.0,73,0.00,,,0.00,Wunderground v.1.15,2013-07-22 23:06:00,
2013-07-22 19:12:00,77.1,68.6,29.80,SSE,155,1.0,1.0,75,0.00,,,0.00,Wunderground v.1.15,2013-07-22 23:12:00,
2013-07-22 19:17:00,77.0,68.5,29.80,SSE,158,1.0,1.0,75,0.00,,,0.00,Wunderground v.1.15,2013-07-22 23:17:00,
2013-07-22 19:23:00,77.1,68.6,29.80,SSE,159,1.0,1.0,75,0.00,,,0.00,Wunderground v.1.15,2013-07-22 23:23:00,
2013-07-22 19:28:00,77.0,68.9,29.80,SSW,200,1.0,1.0,76,0.00,,,0.00,Wunderground v.1.15,2013-07-22 23:28:00,
2013-07-22 19:34:00,76.8,68.7,29.80,SSE,153,1.0,2.0,76,0.00,,,0.00,Wunderground v.1.15,2013-07-22 23:34:00,
2013-07-22 19:39:00,76.5,68.4,29.80,SSE,157,0.0,2.0,76,0.00,,,0.00,Wunderground v.1.15,2013-07-22 23:39:00,
2013-07-22 19:45:00,76.2,68.8,29.80,South,188,0.0,1.0,78,0.00,,,0.00,Wunderground v.1.15,2013-07-22 23:45:00,
2013-07-22 19:50:00,75.9,68.9,29.80,South,189,0.0,1.0,79,0.00,,,0.00,Wunderground v.1.15,2013-07-22 23:50:00,
2013-07-22 19:56:00,75.4,68.8,29.80,South,188,1.0,1.0,80,0.00,,,0.00,Wunderground v.1.15,2013-07-22 23:56:00,
2013-07-22 20:02:00,75.0,68.8,29.81,South,190,1.0,2.0,81,0.00,,,0.00,Wunderground v.1.15,2013-07-23 00:02:00,
2013-07-22 20:07:00,74.7,68.1,29.81,South,189,1.0,2.0,80,0.00,,,0.00,Wunderground v.1.15,2013-07-23 00:07:00,
2013-07-22 20:13:00,74.5,68.3,29.81,South,180,0.0,2.0,81,0.00,,,0.00,Wunderground v.1.15,2013-07-23 00:13:00,
2013-07-22 20:18:00,74.3,67.7,29.81,South,180,0.0,2.0,80,0.00,,,0.00,Wunderground v.1.15,2013-07-23 00:18:00,
2013-07-22 20:24:00,74.2,68.0,29.82,South,181,0.0,2.0,81,0.00,,,0.00,Wunderground v.1.15,2013-07-23 00:24:00,
2013-07-22 20:29:00,74.1,67.9,29.82,South,172,0.0,2.0,81,0.00,,,0.00,Wunderground v.1.15,2013-07-23 00:29:00,
2013-07-22 20:35:00,74.1,67.5,29.82,ESE,110,0.0,2.0,80,0.00,,,0.00,Wunderground v.1.15,2013-07-23 00:35:00,
2013-07-22 20:40:00,74.0,68.2,29.83,ESE,112,0.0,2.0,82,0.00,,,0.00,Wunderground v.1.15,2013-07-23 00:40:00,
2013-07-22 20:46:00,73.4,68.6,29.82,SSE,165,0.0,2.0,85,0.00,,,0.01,Wunderground v.1.15,2013-07-23 00:46:00,
2013-07-22 20:51:00,72.6,68.5,29.82,South,186,0.0,2.0,87,0.07,,,0.02,Wunderground v.1.15,2013-07-23 00:51:00,
2013-07-22 20:56:00,72.0,68.6,29.83,South,186,1.0,2.0,89,0.07,,,0.02,Wunderground v.1.15,2013-07-23 00:56:00,
2013-07-22 21:14:00,70.3,68.0,29.84,SW,219,1.0,2.0,93,0.05,,,0.05,weatherlink.com 1.10,2013-07-23 01:14:00,
2013-07-22 21:29:00,69.6,68.0,29.84,ENE,69,0.0,1.0,94,0.10,,,0.10,weatherlink.com 1.10,2013-07-23 01:29:00,
2013-07-22 21:44:00,69.1,68.0,29.85,ESE,120,1.0,1.0,95,0.09,,,0.10,weatherlink.com 1.10,2013-07-23 01:44:00,
2013-07-22 21:59:00,68.4,67.0,29.86,ESE,120,0.0,1.0,95,0.07,,,0.10,weatherlink.com 1.10,2013-07-23 01:59:00,
2013-07-22 22:14:00,68.0,67.0,29.87,ESE,120,1.0,1.0,95,0.05,,,0.10,weatherlink.com 1.10,2013-07-23 02:14:00,
2013-07-22 22:29:00,67.8,67.0,29.87,ESE,120,0.0,1.0,96,0.00,,,0.10,weatherlink.com 1.10,2013-07-23 02:29:00,
2013-07-22 22:44:00,67.4,66.0,29.87,ESE,120,0.0,1.0,96,0.00,,,0.10,weatherlink.com 1.10,2013-07-23 02:44:00,
2013-07-22 22:59:00,66.8,66.0,29.87,ESE,120,0.0,0.0,96,0.00,,,0.10,weatherlink.com 1.10,2013-07-23 02:59:00,
2013-07-22 23:14:00,66.6,66.0,29.86,ESE,120,0.0,0.0,96,0.00,,,0.10,weatherlink.com 1.10,2013-07-23 03:14:00,
2013-07-22 23:29:00,66.2,65.0,29.86,ESE,120,0.0,0.0,96,0.00,,,0.10,weatherlink.com 1.10,2013-07-23 03:29:00,
2013-07-22 23:44:00,66.0,65.0,29.87,ESE,120,0.0,0.0,96,0.00,,,0.10,weatherlink.com 1.10,2013-07-23 03:44:00,
2013-07-22 23:59:00,66.1,65.0,29.87,ESE,120,0.0,0.0,97,0.00,,,0.10,weatherlink.com 1.10,2013-07-23 03:59:00,